Time;durP1;ratioP1;P1;durP2;ratioP2;P2;SDS_P1;SDS_P2;PMS_P1;PMS_P2;Temp;Humidity;BMP_temperature;BMP_pressure;BME280_temperature;BME280_humidity;BME280_pressure;Samples;Min_cycle;Max_cycle;Signal;HPM_P1;HPM_P2
2022/10/13 00:02:11;;;;;;;2.40;2.22;;;;;;;10.13;100.00;100667.72;5040738;28;20061;-79
2022/10/13 00:04:37;;;;;;;2.35;2.13;;;;;;;10.16;100.00;100667.69;5041289;28;20071;-79
2022/10/13 00:07:02;;;;;;;4.38;1.98;;;;;;;10.16;100.00;100664.13;5045274;28;20394;-79
2022/10/13 00:09:28;;;;;;;5.00;2.70;;;;;;;10.17;100.00;100669.28;5047655;28;20108;-79
2022/10/13 00:11:57;;;;;;;2.28;1.70;;;;;;;10.19;100.00;100666.84;5041379;28;20029;-79
2022/10/13 00:14:22;;;;;;;2.97;2.03;;;;;;;10.15;100.00;100668.88;5039798;28;20082;-85
2022/10/13 00:16:48;;;;;;;2.83;2.40;;;;;;;10.14;100.00;100667.31;5042097;28;20033;-86
2022/10/13 00:19:14;;;;;;;4.65;2.85;;;;;;;10.04;100.00;100665.47;5040095;28;20036;-86
2022/10/13 00:21:39;;;;;;;3.47;2.35;;;;;;;10.02;100.00;100667.88;5029411;28;20048;-85
2022/10/13 00:24:05;;;;;;;2.55;2.35;;;;;;;9.96;100.00;100669.53;5044575;28;20065;-86
2022/10/13 00:26:30;;;;;;;3.10;1.85;;;;;;;9.93;100.00;100670.38;5041327;28;20156;-86
2022/10/13 00:28:56;;;;;;;1.52;1.42;;;;;;;9.91;100.00;100672.78;5046835;28;20040;-86
2022/10/13 00:31:26;;;;;;;4.22;3.00;;;;;;;9.93;100.00;100675.13;5052383;28;20159;-85
2022/10/13 00:33:52;;;;;;;2.75;2.53;;;;;;;9.88;100.00;100673.63;5049806;28;20037;-79
2022/10/13 00:36:20;;;;;;;4.00;2.22;;;;;;;9.89;100.00;100675.19;5053379;28;20037;-79
2022/10/13 00:38:46;;;;;;;2.53;2.33;;;;;;;9.86;100.00;100664.94;5032955;28;20498;-79
2022/10/13 00:41:12;;;;;;;1.83;1.73;;;;;;;9.87;100.00;100669.25;5045479;28;20033;-79
2022/10/13 00:43:50;;;;;;;0.68;0.68;;;;;;;9.87;100.00;100672.03;5038431;28;20518;-79
2022/10/13 00:46:18;;;;;;;3.17;2.28;;;;;;;9.81;100.00;100668.19;5048706;28;20156;-79
2022/10/13 00:48:45;;;;;;;4.20;2.45;;;;;;;9.84;100.00;100650.72;5053924;28;20449;-79
2022/10/13 00:51:12;;;;;;;2.85;2.65;;;;;;;9.83;100.00;100663.78;5053094;28;20045;-79
2022/10/13 00:53:38;;;;;;;22.65;2.28;;;;;;;9.78;100.00;100663.47;5053821;28;20029;-86
2022/10/13 00:56:05;;;;;;;2.75;2.20;;;;;;;9.72;100.00;100662.34;5053253;28;20569;-85
2022/10/13 00:58:31;;;;;;;2.55;2.00;;;;;;;9.73;100.00;100661.94;5051961;28;20065;-86
2022/10/13 01:03:32;;;;;;;3.50;2.17;;;;;;;9.71;100.00;100658.00;5022167;23;20047;-91
2022/10/13 01:05:59;;;;;;;3.90;2.38;;;;;;;9.68;100.00;100650.53;4918541;29;20095;-90
2022/10/13 01:08:27;;;;;;;1.17;1.15;;;;;;;9.63;100.00;100651.00;4933078;29;20042;-90
2022/10/13 01:11:11;;;;;;;1.65;1.55;;;;;;;9.65;100.00;100659.69;4920873;29;20031;-90
2022/10/13 01:13:49;;;;;;;2.30;1.92;;;;;;;9.60;100.00;100657.38;4947817;29;20054;-91
2022/10/13 01:16:21;;;;;;;4.95;3.05;;;;;;;9.58;100.00;100660.56;4946148;29;20556;-93
2022/10/13 01:18:54;;;;;;;2.22;1.73;;;;;;;9.58;100.00;100657.00;4948209;28;20055;-91
2022/10/13 01:21:25;;;;;;;3.40;2.55;;;;;;;9.52;100.00;100637.28;4931687;29;20078;-90
2022/10/13 01:24:12;;;;;;;2.13;1.92;;;;;;;9.47;100.00;100645.25;4936604;28;20027;-91
2022/10/13 01:26:47;;;;;;;1.40;1.30;;;;;;;9.49;100.00;100648.41;4934847;29;20122;-90
2022/10/13 01:29:50;;;;;;;2.70;1.80;;;;;;;9.49;100.00;100642.88;4951349;28;20039;-91
2022/10/13 01:32:29;;;;;;;1.10;1.00;;;;;;;9.52;100.00;100653.13;4951611;28;20035;-91
2022/10/13 01:35:17;;;;;;;1.83;1.48;;;;;;;9.48;100.00;100647.63;4936947;29;20046;-90
2022/10/13 01:37:46;;;;;;;3.00;1.70;;;;;;;9.49;100.00;100645.66;4968135;28;20035;-91
2022/10/13 01:40:18;;;;;;;2.72;2.33;;;;;;;9.53;100.00;100647.19;4954045;28;20038;-92
2022/10/13 01:42:53;;;;;;;1.95;1.50;;;;;;;9.54;100.00;100647.97;4953543;28;20039;-91
2022/10/13 01:45:21;;;;;;;1.70;1.60;;;;;;;9.53;100.00;100655.47;4937591;29;20039;-91
2022/10/13 01:47:47;;;;;;;2.58;2.38;;;;;;;9.52;100.00;100642.03;4935732;29;20058;-91
2022/10/13 01:50:15;;;;;;;4.20;3.80;;;;;;;9.44;100.00;100629.47;4933977;29;20102;-91
2022/10/13 01:52:41;;;;;;;4.40;3.03;;;;;;;9.38;100.00;100643.78;4933132;29;20113;-91
2022/10/13 01:55:08;;;;;;;1.67;1.48;;;;;;;9.28;100.00;100641.94;4949704;28;20109;-90
2022/10/13 01:57:35;;;;;;;1.88;1.35;;;;;;;9.15;100.00;100627.06;4931591;28;20031;-91
2022/10/13 02:00:06;;;;;;;2.50;2.15;;;;;;;9.20;100.00;100634.91;4965966;28;20039;-91
2022/10/13 02:03:02;;;;;;;3.95;2.03;;;;;;;9.23;100.00;100634.09;4930385;29;20055;-91
2022/10/13 02:05:48;;;;;;;1.95;1.23;;;;;;;9.26;100.00;100638.78;4965655;28;20061;-91
2022/10/13 02:08:57;;;;;;;24.25;2.75;;;;;;;9.24;100.00;100627.34;4935180;29;20054;-91
2022/10/13 02:11:23;;;;;;;1.45;1.35;;;;;;;9.33;100.00;100630.41;4947532;28;20039;-91
2022/10/13 02:14:11;;;;;;;1.98;1.80;;;;;;;9.38;100.00;100618.88;4934378;28;20133;-90
2022/10/13 02:16:39;;;;;;;0.90;0.90;;;;;;;9.48;100.00;100619.94;4948342;28;20094;-92
2022/10/13 02:19:05;;;;;;;2.90;2.42;;;;;;;9.49;100.00;100623.50;4948945;29;20054;-91
2022/10/13 02:21:31;;;;;;;1.73;1.63;;;;;;;9.46;100.00;100614.03;4947899;29;20078;-91
2022/10/13 02:24:02;;;;;;;4.07;3.22;;;;;;;9.44;100.00;100615.63;4947949;28;20036;-92
2022/10/13 02:26:29;;;;;;;0.70;0.70;;;;;;;9.44;100.00;100619.19;4933623;29;20417;-91
2022/10/13 02:29:00;;;;;;;2.33;2.10;;;;;;;9.39;100.00;100622.41;4919593;29;20040;-91
2022/10/13 02:31:26;;;;;;;1.08;1.08;;;;;;;9.41;100.00;100622.00;4949889;28;20046;-92
2022/10/13 02:33:51;;;;;;;1.48;1.38;;;;;;;9.33;100.00;100604.72;4929958;29;20044;-89
2022/10/13 02:36:17;;;;;;;1.83;1.73;;;;;;;9.32;100.00;100625.28;4917578;29;20066;-90
2022/10/13 02:38:42;;;;;;;1.77;1.67;;;;;;;9.35;100.00;100625.22;4932698;29;20036;-89
2022/10/13 02:41:08;;;;;;;1.77;1.67;;;;;;;9.33;100.00;100619.34;4947853;29;20169;-90
2022/10/13 02:43:36;;;;;;;2.65;1.63;;;;;;;9.26;100.00;100624.19;4930466;29;20121;-89
2022/10/13 02:46:02;;;;;;;1.13;1.08;;;;;;;9.23;100.00;100617.47;4932796;29;20047;-90
2022/10/13 02:48:27;;;;;;;2.42;2.00;;;;;;;9.13;100.00;100599.03;4947459;28;20048;-90
2022/10/13 02:50:53;;;;;;;4.05;1.80;;;;;;;9.20;100.00;100618.31;4931042;29;20183;-89
2022/10/13 02:53:18;;;;;;;3.35;2.58;;;;;;;9.16;100.00;100616.78;4923960;29;20043;-89
2022/10/13 02:55:44;;;;;;;1.83;1.70;;;;;;;9.10;100.00;100612.91;4949383;29;20023;-90
2022/10/13 02:58:09;;;;;;;0.82;0.82;;;;;;;9.07;100.00;100613.72;4929660;29;20035;-89
2022/10/13 03:00:35;;;;;;;1.70;1.60;;;;;;;9.10;100.00;100619.19;4931230;29;20726;-90
2022/10/13 03:03:00;;;;;;;2.15;1.95;;;;;;;9.05;100.00;100605.06;4948265;28;20101;-89
2022/10/13 03:05:25;;;;;;;0.70;0.70;;;;;;;9.13;100.00;100612.06;4947770;28;20400;-89
2022/10/13 03:07:51;;;;;;;7.35;1.85;;;;;;;9.13;100.00;100609.31;4934239;29;20031;-90
2022/10/13 03:10:20;;;;;;;1.90;1.75;;;;;;;9.12;100.00;100613.25;4945731;28;20039;-91
2022/10/13 03:12:46;;;;;;;1.52;1.27;;;;;;;9.08;100.00;100604.22;4948230;28;20763;-90
2022/10/13 03:15:11;;;;;;;2.03;1.38;;;;;;;9.07;100.00;100603.44;4932016;29;20035;-91
2022/10/13 03:17:37;;;;;;;2.58;2.22;;;;;;;8.98;100.00;100599.59;4932355;29;20543;-91
2022/10/13 03:20:03;;;;;;;3.47;1.58;;;;;;;8.94;100.00;100607.91;4948576;28;20078;-92
2022/10/13 03:22:31;;;;;;;1.40;1.30;;;;;;;8.88;100.00;100606.81;4946327;28;20023;-92
2022/10/13 03:24:56;;;;;;;1.55;1.45;;;;;;;8.88;100.00;100612.34;4946930;28;20046;-92
2022/10/13 03:27:22;;;;;;;0.52;0.50;;;;;;;8.86;100.00;100601.69;4931566;28;20027;-89
2022/10/13 03:29:47;;;;;;;2.67;2.05;;;;;;;8.91;100.00;100597.69;4930385;28;20460;-90
2022/10/13 03:32:13;;;;;;;2.40;1.83;;;;;;;8.89;100.00;100608.38;4933433;28;20058;-89
2022/10/13 03:34:38;;;;;;;1.60;1.50;;;;;;;8.88;100.00;100609.59;4932841;28;20035;-90
2022/10/13 03:37:05;;;;;;;0.90;0.90;;;;;;;8.83;100.00;100615.56;4931350;29;20051;-90
2022/10/13 03:39:35;;;;;;;7.50;3.22;;;;;;;8.77;100.00;100612.47;4944323;29;20027;-89
2022/10/13 03:42:01;;;;;;;3.38;1.65;;;;;;;8.72;100.00;100614.88;4927696;29;20042;-90
2022/10/13 03:44:27;;;;;;;1.35;1.25;;;;;;;8.68;100.00;100611.38;4930074;29;20039;-90
2022/10/13 03:46:52;;;;;;;2.63;2.13;;;;;;;8.65;100.00;100614.97;4929632;29;20118;-91
2022/10/13 03:49:18;;;;;;;2.92;2.00;;;;;;;8.63;100.00;100611.81;4934198;28;20039;-93
2022/10/13 03:51:44;;;;;;;2.33;2.13;;;;;;;8.60;100.00;100623.69;4950922;29;20094;-92
2022/10/13 03:54:11;;;;;;;5.40;2.25;;;;;;;8.57;100.00;100619.00;4932799;29;20036;-91
2022/10/13 03:56:37;;;;;;;3.20;2.05;;;;;;;8.55;100.00;100621.38;4929636;29;20039;-91
2022/10/13 03:59:03;;;;;;;2.22;1.77;;;;;;;8.51;100.00;100626.13;4928313;29;20504;-91
2022/10/13 04:01:30;;;;;;;1.38;1.23;;;;;;;8.47;100.00;100617.09;4914099;28;20069;-91
2022/10/13 04:03:56;;;;;;;1.45;1.45;;;;;;;8.43;100.00;100609.63;4933850;29;20039;-90
2022/10/13 04:06:23;;;;;;;2.13;1.90;;;;;;;8.47;100.00;100614.31;4932793;29;20130;-91
2022/10/13 04:08:49;;;;;;;1.35;1.25;;;;;;;8.46;100.00;100601.69;4921577;29;20062;-90
2022/10/13 04:11:15;;;;;;;0.73;0.73;;;;;;;8.49;100.00;100603.66;4940375;28;20456;-90
2022/10/13 04:13:42;;;;;;;3.22;2.40;;;;;;;8.45;100.00;100605.69;4931628;29;20032;-90
2022/10/13 04:16:12;;;;;;;1.40;1.30;;;;;;;8.41;100.00;100609.22;4933251;29;20378;-90
2022/10/13 04:18:37;;;;;;;3.10;1.42;;;;;;;8.41;100.00;100595.41;4937571;29;20116;-89
2022/10/13 04:21:07;;;;;;;1.90;1.17;;;;;;;8.38;100.00;100596.22;4966046;28;20055;-90
2022/10/13 04:23:33;;;;;;;3.00;2.55;;;;;;;8.39;100.00;100600.56;4934376;29;20027;-88
2022/10/13 04:25:58;;;;;;;1.15;1.15;;;;;;;8.46;100.00;100601.69;4915127;29;20109;-90
2022/10/13 04:28:24;;;;;;;1.48;1.38;;;;;;;8.38;100.00;100600.97;4947780;28;20453;-89
2022/10/13 04:30:49;;;;;;;7.65;2.50;;;;;;;8.33;100.00;100609.72;4930463;28;20460;-89
2022/10/13 04:33:15;;;;;;;2.55;2.25;;;;;;;8.37;100.00;100616.00;4938128;29;20067;-90
2022/10/13 04:35:41;;;;;;;2.42;2.22;;;;;;;8.36;100.00;100618.00;4929474;29;20115;-89
2022/10/13 04:38:06;;;;;;;1.65;1.27;;;;;;;8.31;100.00;100606.56;4947935;28;20094;-89
2022/10/13 04:40:33;;;;;;;2.78;2.10;;;;;;;8.26;100.00;100599.47;4928318;29;20055;-89
2022/10/13 04:42:58;;;;;;;2.08;1.80;;;;;;;8.24;100.00;100603.84;4916101;28;20458;-92
2022/10/13 04:45:25;;;;;;;1.58;1.48;;;;;;;8.21;100.00;100607.44;4936053;29;20057;-89
2022/10/13 04:47:51;;;;;;;1.67;1.50;;;;;;;8.18;100.00;100603.47;4950733;28;20535;-89
2022/10/13 04:50:20;;;;;;;1.70;1.60;;;;;;;8.20;100.00;100609.41;4946729;28;20047;-89
2022/10/13 04:52:46;;;;;;;3.42;1.60;;;;;;;8.13;100.00;100617.72;4933477;29;20134;-89
2022/10/13 04:55:12;;;;;;;0.35;0.35;;;;;;;8.15;100.00;100615.34;4914506;28;20081;-91
2022/10/13 04:57:37;;;;;;;1.13;1.08;;;;;;;8.10;100.00;100613.03;4946892;28;20051;-90
2022/10/13 05:00:06;;;;;;;1.05;1.00;;;;;;;8.04;100.00;100617.41;4948973;28;20050;-91
2022/10/13 05:02:36;;;;;;;2.47;2.28;;;;;;;8.03;100.00;100601.25;4936482;28;20039;-90
2022/10/13 05:05:02;;;;;;;2.30;2.17;;;;;;;8.01;100.00;100609.16;4953623;28;20114;-90
2022/10/13 05:07:29;;;;;;;2.53;2.33;;;;;;;8.00;100.00;100607.59;4939779;29;20433;-90
2022/10/13 05:09:55;;;;;;;0.90;0.90;;;;;;;7.99;100.00;100623.38;4953259;28;20027;-90
2022/10/13 05:12:21;;;;;;;3.60;2.05;;;;;;;7.94;100.00;100594.19;4959124;29;20118;-91
2022/10/13 05:14:47;;;;;;;2.35;2.15;;;;;;;7.96;100.00;100613.94;4943327;29;20555;-91
2022/10/13 05:17:12;;;;;;;2.22;2.08;;;;;;;8.02;100.00;100611.50;4951765;29;20027;-90
2022/10/13 05:19:38;;;;;;;1.58;1.48;;;;;;;8.06;100.00;100605.94;4934321;29;20499;-91
2022/10/13 05:22:04;;;;;;;3.65;2.22;;;;;;;8.11;100.00;100614.59;4951413;28;20039;-90
2022/10/13 05:24:35;;;;;;;4.68;4.30;;;;;;;8.11;100.00;100619.34;4917285;29;20043;-91
2022/10/13 05:27:08;;;;;;;2.22;2.10;;;;;;;8.20;100.00;100619.66;4953478;29;20552;-89
2022/10/13 05:29:33;;;;;;;6.17;3.57;;;;;;;8.26;100.00;100613.28;4937776;29;20114;-91
2022/10/13 05:31:59;;;;;;;1.25;1.15;;;;;;;8.28;100.00;100610.91;4928454;29;20350;-91
2022/10/13 05:34:24;;;;;;;2.13;1.92;;;;;;;8.31;100.00;100607.34;4952810;28;20473;-92
2022/10/13 05:36:50;;;;;;;2.00;1.70;;;;;;;8.43;100.00;100615.16;4950300;29;20051;-93
2022/10/13 05:39:15;;;;;;;2.90;2.67;;;;;;;8.50;100.00;100607.97;4949507;29;20031;-92
2022/10/13 05:41:41;;;;;;;2.50;2.13;;;;;;;8.57;100.00;100614.25;4946579;28;20035;-89
2022/10/13 05:44:16;;;;;;;3.05;2.65;;;;;;;8.59;100.00;100611.06;4948918;28;20397;-91
2022/10/13 05:46:52;;;;;;;1.77;1.67;;;;;;;8.62;100.00;100610.22;4940674;29;20126;-96
2022/10/13 05:49:17;;;;;;;3.42;2.08;;;;;;;8.67;100.00;100615.31;4938328;29;20039;-95
2022/10/13 05:51:49;;;;;;;2.83;2.58;;;;;;;8.68;100.00;100611.38;4942652;29;20485;-94
2022/10/13 05:54:22;;;;;;;2.67;2.20;;;;;;;8.61;100.00;100619.75;4941932;29;20035;-87
2022/10/13 05:56:56;;;;;;;2.50;2.30;;;;;;;8.66;100.00;100624.81;4954699;28;20043;-86
2022/10/13 05:59:24;;;;;;;2.20;1.83;;;;;;;8.71;100.00;100622.41;4935025;29;20038;-86
2022/10/13 06:01:50;;;;;;;1.77;1.67;;;;;;;8.80;100.00;100624.69;4936408;29;20503;-85
2022/10/13 06:04:24;;;;;;;2.92;2.15;;;;;;;8.88;100.00;100628.94;4950901;29;20065;-85
2022/10/13 06:06:49;;;;;;;3.15;2.95;;;;;;;8.94;100.00;100629.28;4935284;29;20043;-86
2022/10/13 06:09:15;;;;;;;3.70;3.40;;;;;;;9.02;100.00;100634.31;4934835;29;20370;-86
2022/10/13 06:11:42;;;;;;;3.63;3.33;;;;;;;9.14;100.00;100633.78;4962617;28;20030;-86
2022/10/13 06:14:07;;;;;;;3.67;2.97;;;;;;;9.26;100.00;100633.25;4957635;28;20066;-96
2022/10/13 06:16:36;;;;;;;4.07;3.53;;;;;;;9.36;100.00;100637.88;4959897;28;20039;-95
2022/10/13 06:19:03;;;;;;;3.53;2.88;;;;;;;9.50;100.00;100638.91;4943089;28;20062;-94
2022/10/13 06:21:29;;;;;;;2.88;2.67;;;;;;;9.54;100.00;100629.38;4959780;28;20038;-95
2022/10/13 06:23:54;;;;;;;2.63;2.22;;;;;;;9.65;100.00;100631.97;4943460;28;20039;-94
2022/10/13 06:26:20;;;;;;;7.53;2.60;;;;;;;9.74;100.00;100646.91;4924037;29;20572;-94
2022/10/13 06:28:45;;;;;;;1.38;1.33;;;;;;;9.78;100.00;100636.56;4921955;29;20082;-95
2022/10/13 06:31:11;;;;;;;3.90;2.80;;;;;;;9.86;100.00;100642.78;4953341;29;20040;-86
2022/10/13 06:33:36;;;;;;;10.50;4.82;;;;;;;9.89;100.00;100647.47;4934358;29;20019;-86
2022/10/13 06:36:03;;;;;;;3.63;3.13;;;;;;;9.96;100.00;100652.91;4934563;29;20047;-86
2022/10/13 06:38:29;;;;;;;2.35;2.25;;;;;;;9.99;100.00;100649.31;4948972;29;20034;-86
2022/10/13 06:40:59;;;;;;;2.58;1.92;;;;;;;9.98;100.00;100633.91;4951873;29;20035;-85
2022/10/13 06:43:26;;;;;;;2.55;2.38;;;;;;;10.06;100.00;100646.44;4920566;29;20051;-86
2022/10/13 06:45:51;;;;;;;3.17;2.95;;;;;;;10.12;100.00;100650.31;4936856;29;20520;-85
2022/10/13 06:48:16;;;;;;;3.58;2.58;;;;;;;10.14;100.00;100641.56;4935881;29;20092;-86
2022/10/13 06:50:42;;;;;;;4.15;3.78;;;;;;;10.23;100.00;100637.06;4952885;29;20041;-86
2022/10/13 06:53:08;;;;;;;2.95;2.75;;;;;;;10.35;100.00;100646.03;4936403;29;20027;-86
2022/10/13 06:55:33;;;;;;;2.78;2.58;;;;;;;10.43;100.00;100642.72;4950899;29;20125;-86
2022/10/13 06:57:58;;;;;;;2.70;2.50;;;;;;;10.54;100.00;100639.75;4935701;29;20321;-86
2022/10/13 07:00:24;;;;;;;3.20;2.95;;;;;;;10.80;100.00;100644.44;4948664;28;20541;-86
2022/10/13 07:02:51;;;;;;;2.58;2.35;;;;;;;10.94;100.00;100640.63;4932573;29;20424;-86
2022/10/13 07:05:17;;;;;;;4.72;3.50;;;;;;;10.98;100.00;100639.38;4932828;29;20054;-86
2022/10/13 07:07:42;;;;;;;1.98;1.85;;;;;;;11.10;100.00;100644.28;4917606;29;20024;-95
2022/10/13 07:10:08;;;;;;;2.83;2.53;;;;;;;11.14;100.00;100635.88;4945441;28;20055;-95
2022/10/13 07:12:33;;;;;;;2.65;2.45;;;;;;;11.22;100.00;100637.31;4969739;28;20046;-95
2022/10/13 07:14:59;;;;;;;1.45;1.35;;;;;;;11.16;100.00;100639.78;4986167;28;20023;-95
2022/10/13 07:17:25;;;;;;;2.03;1.88;;;;;;;11.37;100.00;100637.81;4986492;28;20039;-95
2022/10/13 07:19:50;;;;;;;4.55;4.15;;;;;;;11.67;100.00;100627.25;4989037;28;20042;-95
2022/10/13 07:22:17;;;;;;;3.30;2.42;;;;;;;11.91;100.00;100622.38;4988094;28;20086;-94
2022/10/13 07:24:42;;;;;;;2.42;2.05;;;;;;;12.25;100.00;100623.97;4977492;28;20111;-93
2022/10/13 07:27:08;;;;;;;3.22;2.95;;;;;;;12.51;100.00;100625.69;4950151;29;20039;-95
2022/10/13 07:29:33;;;;;;;2.83;2.08;;;;;;;12.76;100.00;100634.19;4968207;28;20121;-94
2022/10/13 07:31:59;;;;;;;1.70;1.60;;;;;;;13.06;100.00;100621.88;4961778;29;20484;-95
2022/10/13 07:34:24;;;;;;;2.17;1.83;;;;;;;13.34;100.00;100615.53;4939405;29;20035;-95
2022/10/13 07:36:50;;;;;;;2.15;1.92;;;;;;;13.47;100.00;100629.47;4942587;29;20031;-94
2022/10/13 07:39:15;;;;;;;1.95;1.75;;;;;;;13.51;100.00;100630.94;4946156;29;20065;-94
2022/10/13 07:41:41;;;;;;;1.75;1.20;;;;;;;13.79;100.00;100629.31;4936383;29;20521;-95
2022/10/13 07:44:06;;;;;;;3.00;2.15;;;;;;;13.90;100.00;100629.78;4952743;28;20516;-94
2022/10/13 07:46:32;;;;;;;6.20;2.15;;;;;;;13.92;100.00;100618.94;4951781;29;20031;-85
2022/10/13 07:48:57;;;;;;;2.72;1.95;;;;;;;14.05;100.00;100621.72;4935354;29;20397;-85
2022/10/13 07:51:23;;;;;;;2.47;1.92;;;;;;;14.19;100.00;100626.09;4935465;29;20110;-86
2022/10/13 07:53:48;;;;;;;5.45;2.22;;;;;;;14.40;100.00;100617.03;4935476;29;20125;-86
2022/10/13 07:56:15;;;;;;;3.53;3.22;;;;;;;14.35;100.00;100623.22;4958914;29;20130;-85
2022/10/13 07:58:45;;;;;;;3.90;3.58;;;;;;;14.58;100.00;100622.81;4945463;29;20130;-85
2022/10/13 08:01:12;;;;;;;1.92;1.70;;;;;;;14.84;100.00;100617.94;4936903;29;20094;-85
2022/10/13 08:03:38;;;;;;;1.70;1.60;;;;;;;14.99;100.00;100618.22;4920128;29;20047;-85
2022/10/13 08:06:05;;;;;;;2.65;2.45;;;;;;;15.10;100.00;100604.63;4935535;29;20151;-85
2022/10/13 08:08:31;;;;;;;2.45;2.13;;;;;;;15.23;100.00;100616.53;4935142;29;20035;-85
2022/10/13 08:11:05;;;;;;;0.98;0.98;;;;;;;15.38;100.00;100606.41;4925434;28;20078;-86
2022/10/13 08:13:32;;;;;;;1.80;1.70;;;;;;;15.43;100.00;100608.59;4957370;28;20027;-85
2022/10/13 08:16:07;;;;;;;3.22;2.67;;;;;;;15.52;100.00;100610.72;4959501;28;20587;-84
2022/10/13 08:18:32;;;;;;;2.78;1.15;;;;;;;15.75;100.00;100613.00;4957809;28;20073;-85
2022/10/13 08:21:02;;;;;;;1.50;1.35;;;;;;;15.92;100.00;100599.56;4958478;28;20106;-85
2022/10/13 08:23:28;;;;;;;1.55;1.35;;;;;;;15.98;100.00;100601.28;4978245;28;20039;-94
2022/10/13 08:25:53;;;;;;;8.95;2.55;;;;;;;15.92;100.00;100602.38;4936764;29;20432;-93
2022/10/13 08:28:25;;;;;;;1.13;0.88;;;;;;;16.03;100.00;100600.69;4929154;29;20035;-94
2022/10/13 08:30:52;;;;;;;2.40;1.98;;;;;;;16.19;100.00;100596.84;4926038;29;20503;-95
2022/10/13 08:33:18;;;;;;;2.78;2.35;;;;;;;16.16;100.00;100597.78;4942226;29;20042;-93
2022/10/13 08:35:43;;;;;;;1.60;1.50;;;;;;;16.37;100.00;100593.34;4941538;29;20035;-93
2022/10/13 08:38:09;;;;;;;2.85;2.45;;;;;;;16.32;100.00;100600.31;4945411;29;20035;-94
2022/10/13 08:40:36;;;;;;;3.05;2.85;;;;;;;16.39;100.00;100593.63;4961263;29;20035;-92
2022/10/13 08:43:07;;;;;;;3.15;2.85;;;;;;;16.20;100.00;100601.22;4931907;29;20110;-93
2022/10/13 08:45:34;;;;;;;1.95;1.85;;;;;;;16.25;100.00;100595.03;4964035;29;20039;-93
2022/10/13 08:48:11;;;;;;;3.35;2.17;;;;;;;16.46;100.00;100596.16;4948556;29;20047;-94
2022/10/13 08:50:40;;;;;;;3.45;1.70;;;;;;;16.47;100.00;100587.28;4932572;29;20102;-94
2022/10/13 08:53:11;;;;;;;2.85;1.75;;;;;;;16.64;100.00;100588.59;4959050;29;20031;-95
2022/10/13 08:55:40;;;;;;;1.95;1.23;;;;;;;16.98;100.00;100578.31;4938165;29;20125;-95
2022/10/13 08:58:24;;;;;;;2.33;1.38;;;;;;;17.07;100.00;100592.31;4956363;29;20504;-85
2022/10/13 09:00:59;;;;;;;0.93;0.93;;;;;;;17.13;100.00;100593.25;4922254;29;20429;-85
2022/10/13 09:03:27;;;;;;;2.47;1.75;;;;;;;17.12;96.87;100588.88;4937987;29;20047;-84
2022/10/13 09:06:02;;;;;;;1.95;1.55;;;;;;;16.96;97.88;100587.19;4922422;29;20443;-84
2022/10/13 09:08:38;;;;;;;1.90;1.45;;;;;;;17.11;97.38;100587.31;4937868;29;20040;-84
2022/10/13 09:11:04;;;;;;;8.98;2.03;;;;;;;16.79;98.21;100585.94;4945096;28;20408;-85
2022/10/13 09:13:29;;;;;;;3.55;1.85;;;;;;;16.65;99.37;100590.16;4956796;28;20053;-84
2022/10/13 09:15:56;;;;;;;1.17;0.98;;;;;;;16.73;98.65;100585.81;4973407;28;20534;-93
2022/10/13 09:18:28;;;;;;;1.33;1.10;;;;;;;17.02;99.47;100590.16;4973298;28;20023;-84
2022/10/13 09:21:18;;;;;;;1.60;1.33;;;;;;;17.17;97.73;100591.06;4957013;28;20165;-84
2022/10/13 09:23:44;;;;;;;2.35;2.15;;;;;;;17.40;97.43;100586.81;4936876;28;20117;-84
2022/10/13 09:26:24;;;;;;;26.00;2.38;;;;;;;17.22;95.77;100598.84;4938058;29;20489;-83
2022/10/13 09:28:51;;;;;;;3.97;1.73;;;;;;;17.14;98.07;100590.00;4921933;29;20039;-84
2022/10/13 09:31:22;;;;;;;6.82;1.90;;;;;;;16.93;98.08;100588.13;4938274;29;20438;-85
2022/10/13 09:34:22;;;;;;;2.20;1.77;;;;;;;16.91;100.00;100590.63;4936936;29;20047;-85
2022/10/13 09:37:02;;;;;;;2.58;2.08;;;;;;;17.33;98.34;100582.31;4942748;29;20075;-94
2022/10/13 09:39:29;;;;;;;1.58;1.27;;;;;;;17.54;98.09;100581.34;4957341;29;20138;-92
2022/10/13 09:42:28;;;;;;;1.98;1.35;;;;;;;17.81;96.31;100576.91;4957982;29;20035;-94
2022/10/13 09:45:00;;;;;;;1.50;1.40;;;;;;;17.87;93.11;100577.84;4900044;29;20065;-95
2022/10/13 09:47:28;;;;;;;3.17;1.52;;;;;;;17.63;95.11;100584.13;4938388;29;20389;-94
2022/10/13 09:50:03;;;;;;;3.75;2.63;;;;;;;17.66;94.13;100577.59;4922413;29;20034;-93
2022/10/13 09:52:29;;;;;;;1.75;1.65;;;;;;;17.48;94.71;100577.59;4938390;29;20118;-93
2022/10/13 09:54:59;;;;;;;1.75;1.50;;;;;;;17.73;93.26;100582.09;4938129;29;20111;-93
2022/10/13 09:57:44;;;;;;;1.75;1.02;;;;;;;17.83;92.55;100574.41;4937341;29;20118;-92
2022/10/13 10:00:28;;;;;;;1.30;1.20;;;;;;;17.64;93.99;100563.25;4937940;29;20036;-92
2022/10/13 10:02:59;;;;;;;;;;;;;;;17.92;94.12;100580.75;4938203;29;20075;-94
2022/10/13 10:05:28;;;;;;;2.58;2.08;;;;;;;17.76;92.90;100569.13;4953647;29;19930;-92
2022/10/13 10:08:03;;;;;;;2.38;1.48;;;;;;;17.87;94.35;100566.59;4938344;29;20046;-93
2022/10/13 10:10:38;;;;;;;2.60;2.33;;;;;;;18.06;93.72;100565.25;4937900;29;20034;-92
2022/10/13 10:13:10;;;;;;;1.38;1.27;;;;;;;18.45;91.41;100560.50;4921425;29;20126;-84
2022/10/13 10:15:55;;;;;;;2.47;2.28;;;;;;;18.47;88.87;100570.00;4951773;29;20043;-84
2022/10/13 10:18:59;;;;;;;3.25;2.08;;;;;;;18.43;90.46;100558.19;4936983;29;20409;-84
2022/10/13 10:21:42;;;;;;;;;;;;;;;18.12;90.70;100557.72;4937458;29;20035;-84
2022/10/13 10:24:23;;;;;;;2.03;1.55;;;;;;;18.09;91.21;100555.88;4952706;28;19961;-84
2022/10/13 10:26:53;;;;;;;4.30;2.08;;;;;;;18.18;92.01;100555.84;4936734;29;20035;-84
2022/10/13 10:29:25;;;;;;;1.75;1.58;;;;;;;18.43;88.55;100552.56;4952956;28;20118;-84
2022/10/13 10:32:31;;;;;;;1.70;1.40;;;;;;;18.45;89.97;100547.22;4937695;29;20039;-94
2022/10/13 10:35:03;;;;;;;4.72;2.45;;;;;;;18.48;86.49;100537.84;4937230;28;20058;-94
2022/10/13 10:37:37;;;;;;;1.42;1.33;;;;;;;18.62;88.36;100539.97;4953060;29;20035;-94
2022/10/13 10:40:40;;;;;;;1.50;1.42;;;;;;;18.70;87.94;100545.19;4937847;29;20386;-93
2022/10/13 10:43:30;;;;;;;3.25;2.60;;;;;;;18.86;85.13;100531.47;4953221;28;20050;-94
2022/10/13 10:45:58;;;;;;;1.48;1.38;;;;;;;19.12;83.27;100537.34;4919397;29;20050;-93
2022/10/13 10:48:37;;;;;;;0.88;0.88;;;;;;;18.97;84.80;100533.72;4920313;29;20032;-95
2022/10/13 10:51:05;;;;;;;1.42;1.23;;;;;;;19.12;84.89;100508.44;4917682;29;20043;-84
2022/10/13 10:53:44;;;;;;;1.67;1.58;;;;;;;19.45;84.16;100509.78;4917378;29;20119;-84
2022/10/13 10:56:27;;;;;;;11.63;2.28;;;;;;;19.74;83.82;100513.81;4917007;29;20036;-84
2022/10/13 10:59:10;;;;;;;1.42;1.30;;;;;;;19.73;80.94;100513.06;4942268;29;20535;-84
2022/10/13 11:01:42;;;;;;;2.55;2.20;;;;;;;19.77;81.23;100507.22;4935871;28;20407;-84
2022/10/13 11:04:39;;;;;;;5.07;1.90;;;;;;;19.74;79.73;100508.97;4951771;29;20055;-84
2022/10/13 11:07:21;;;;;;;1.98;1.80;;;;;;;19.61;81.53;100504.94;4952425;29;20039;-95
2022/10/13 11:09:46;;;;;;;1.80;1.10;;;;;;;19.45;81.54;100498.53;4951766;29;20115;-84
2022/10/13 11:13:05;;;;;;;5.88;2.30;;;;;;;19.57;81.35;100504.38;4969825;28;20130;-86
2022/10/13 11:15:42;;;;;;;5.65;0.95;;;;;;;19.33;81.51;100487.59;4949043;29;20047;-85
2022/10/13 11:18:45;;;;;;;2.60;1.67;;;;;;;19.26;82.89;100497.16;4936074;29;20034;-85
2022/10/13 11:21:10;;;;;;;2.45;1.52;;;;;;;19.47;82.70;100484.78;4951709;29;20039;-85
2022/10/13 11:23:43;;;;;;;1.92;1.70;;;;;;;19.51;81.66;100488.16;4951852;29;20042;-86
2022/10/13 11:26:22;;;;;;;1.58;1.48;;;;;;;19.59;82.84;100484.94;4952122;29;20043;-95
2022/10/13 11:28:48;;;;;;;6.20;2.67;;;;;;;19.80;81.04;100478.09;4954173;29;20370;-94
2022/10/13 11:31:14;;;;;;;2.28;1.77;;;;;;;20.07;80.30;100480.50;4954864;28;20039;-94
2022/10/13 11:33:39;;;;;;;3.22;1.42;;;;;;;20.27;79.04;100466.44;4953537;29;20035;-94
2022/10/13 11:36:30;;;;;;;1.35;1.25;;;;;;;19.99;80.33;100471.72;4954223;29;20067;-94
2022/10/13 11:39:19;;;;;;;0.77;0.70;;;;;;;19.70;80.45;100465.41;4957959;28;20037;-94
2022/10/13 11:42:02;;;;;;;4.15;2.03;;;;;;;19.91;78.74;100462.13;4959034;29;20067;-95